sensor_id;sensor_type;location;lat;lon;timestamp;pressure;altitude;pressure_sealevel;temperature;humidity
8051;BME280;4068;42.158;24.732;2024-01-15T00:02:09;99280.94;;;-3.41;100.00
8051;BME280;4068;42.158;24.732;2024-01-15T00:04:38;99286.22;;;-3.44;100.00
8051;BME280;4068;42.158;24.732;2024-01-15T00:07:05;99289.72;;;-3.47;100.00
8051;BME280;4068;42.158;24.732;2024-01-15T00:09:30;99279.47;;;-3.51;100.00
8051;BME280;4068;42.158;24.732;2024-01-15T00:11:56;99277.88;;;-3.55;100.00
8051;BME280;4068;42.158;24.732;2024-01-15T00:14:22;99235.53;;;-3.87;100.00
8051;BME280;4068;42.158;24.732;2024-01-15T00:16:47;99275.69;;;-3.71;100.00
8051;BME280;4068;42.158;24.732;2024-01-15T00:19:15;99267.28;;;-3.79;100.00
8051;BME280;4068;42.158;24.732;2024-01-15T00:21:41;99260.69;;;-3.92;100.00
8051;BME280;4068;42.158;24.732;2024-01-15T00:24:06;99285.50;;;-3.84;100.00
8051;BME280;4068;42.158;24.732;2024-01-15T00:26:32;99283.00;;;-3.87;100.00
8051;BME280;4068;42.158;24.732;2024-01-15T00:28:57;99283.13;;;-3.91;100.00
8051;BME280;4068;42.158;24.732;2024-01-15T00:31:23;99281.50;;;-3.95;100.00
8051;BME280;4068;42.158;24.732;2024-01-15T00:33:48;99283.34;;;-4.01;100.00
8051;BME280;4068;42.158;24.732;2024-01-15T00:36:14;99238.22;;;-4.26;100.00
8051;BME280;4068;42.158;24.732;2024-01-15T00:38:40;99273.94;;;-4.05;100.00
8051;BME280;4068;42.158;24.732;2024-01-15T00:41:05;99276.41;;;-3.99;100.00
8051;BME280;4068;42.158;24.732;2024-01-15T00:43:31;99266.94;;;-4.00;100.00
8051;BME280;4068;42.158;24.732;2024-01-15T00:45:56;99269.56;;;-4.01;100.00
8051;BME280;4068;42.158;24.732;2024-01-15T00:48:22;99270.41;;;-4.01;100.00
8051;BME280;4068;42.158;24.732;2024-01-15T00:50:47;99264.22;;;-3.95;100.00
8051;BME280;4068;42.158;24.732;2024-01-15T00:53:12;99271.13;;;-3.95;100.00
8051;BME280;4068;42.158;24.732;2024-01-15T00:55:38;99268.50;;;-3.94;100.00
8051;BME280;4068;42.158;24.732;2024-01-15T00:58:04;99247.75;;;-3.92;100.00
8051;BME280;4068;42.158;24.732;2024-01-15T01:00:29;99218.09;;;-4.15;100.00
8051;BME280;4068;42.158;24.732;2024-01-15T01:02:55;99250.53;;;-4.00;100.00
8051;BME280;4068;42.158;24.732;2024-01-15T01:05:20;99213.28;;;-4.29;100.00
8051;BME280;4068;42.158;24.732;2024-01-15T01:07:46;99247.28;;;-4.08;100.00
8051;BME280;4068;42.158;24.732;2024-01-15T01:10:11;99254.09;;;-4.04;100.00
8051;BME280;4068;42.158;24.732;2024-01-15T01:12:37;99255.94;;;-4.09;100.00
8051;BME280;4068;42.158;24.732;2024-01-15T01:15:02;99236.13;;;-4.12;100.00
8051;BME280;4068;42.158;24.732;2024-01-15T01:17:28;99243.91;;;-4.10;100.00
8051;BME280;4068;42.158;24.732;2024-01-15T01:19:53;99249.00;;;-4.07;100.00
8051;BME280;4068;42.158;24.732;2024-01-15T01:22:19;99248.13;;;-4.08;100.00
8051;BME280;4068;42.158;24.732;2024-01-15T01:24:44;99249.09;;;-4.10;100.00
8051;BME280;4068;42.158;24.732;2024-01-15T01:27:10;99237.97;;;-4.16;100.00
8051;BME280;4068;42.158;24.732;2024-01-15T01:29:36;99259.03;;;-3.95;100.00
8051;BME280;4068;42.158;24.732;2024-01-15T01:32:01;99254.06;;;-4.03;100.00
8051;BME280;4068;42.158;24.732;2024-01-15T01:34:26;99256.78;;;-4.07;100.00
8051;BME280;4068;42.158;24.732;2024-01-15T01:36:52;99250.81;;;-4.11;100.00
8051;BME280;4068;42.158;24.732;2024-01-15T01:39:18;99249.03;;;-4.09;100.00
8051;BME280;4068;42.158;24.732;2024-01-15T01:41:43;99246.50;;;-4.10;100.00
8051;BME280;4068;42.158;24.732;2024-01-15T01:44:09;99242.28;;;-4.14;100.00
8051;BME280;4068;42.158;24.732;2024-01-15T01:46:36;99245.63;;;-4.11;100.00
8051;BME280;4068;42.158;24.732;2024-01-15T01:49:06;99242.16;;;-4.10;100.00
8051;BME280;4068;42.158;24.732;2024-01-15T01:51:34;99248.16;;;-4.09;100.00
8051;BME280;4068;42.158;24.732;2024-01-15T01:54:01;99221.72;;;-4.22;100.00
8051;BME280;4068;42.158;24.732;2024-01-15T01:56:27;99237.09;;;-4.14;100.00
8051;BME280;4068;42.158;24.732;2024-01-15T01:58:53;99234.47;;;-4.13;100.00
8051;BME280;4068;42.158;24.732;2024-01-15T02:01:18;99216.81;;;-4.31;100.00
8051;BME280;4068;42.158;24.732;2024-01-15T02:03:45;99223.66;;;-4.30;100.00
8051;BME280;4068;42.158;24.732;2024-01-15T02:06:11;99190.44;;;-4.47;100.00
8051;BME280;4068;42.158;24.732;2024-01-15T02:08:37;99223.94;;;-4.41;100.00
8051;BME280;4068;42.158;24.732;2024-01-15T02:11:02;99224.78;;;-4.41;100.00
8051;BME280;4068;42.158;24.732;2024-01-15T02:13:28;99226.78;;;-4.52;100.00
8051;BME280;4068;42.158;24.732;2024-01-15T02:15:53;99221.69;;;-4.55;100.00
8051;BME280;4068;42.158;24.732;2024-01-15T02:18:19;99215.69;;;-4.57;100.00
8051;BME280;4068;42.158;24.732;2024-01-15T02:20:45;99222.59;;;-4.58;100.00
8051;BME280;4068;42.158;24.732;2024-01-15T02:23:12;99225.19;;;-4.58;100.00
8051;BME280;4068;42.158;24.732;2024-01-15T02:25:39;99226.97;;;-4.60;100.00
8051;BME280;4068;42.158;24.732;2024-01-15T02:28:06;99224.47;;;-4.63;100.00
8051;BME280;4068;42.158;24.732;2024-01-15T02:30:35;99227.88;;;-4.62;100.00
8051;BME280;4068;42.158;24.732;2024-01-15T02:33:02;99224.41;;;-4.61;100.00
8051;BME280;4068;42.158;24.732;2024-01-15T02:35:28;99219.88;;;-4.52;100.00
8051;BME280;4068;42.158;24.732;2024-01-15T02:37:53;99218.22;;;-4.54;100.00
8051;BME280;4068;42.158;24.732;2024-01-15T02:40:19;99231.50;;;-4.70;100.00
8051;BME280;4068;42.158;24.732;2024-01-15T02:42:44;99227.13;;;-4.68;100.00
8051;BME280;4068;42.158;24.732;2024-01-15T02:45:09;99235.13;;;-4.77;100.00
8051;BME280;4068;42.158;24.732;2024-01-15T02:47:35;99228.34;;;-4.82;100.00
8051;BME280;4068;42.158;24.732;2024-01-15T02:50:00;99185.16;;;-5.18;100.00
8051;BME280;4068;42.158;24.732;2024-01-15T02:52:26;99212.44;;;-5.05;100.00
8051;BME280;4068;42.158;24.732;2024-01-15T02:54:51;99234.78;;;-5.00;100.00
8051;BME280;4068;42.158;24.732;2024-01-15T02:57:17;99213.34;;;-5.06;100.00
8051;BME280;4068;42.158;24.732;2024-01-15T02:59:42;99183.41;;;-5.17;100.00
8051;BME280;4068;42.158;24.732;2024-01-15T03:02:08;99201.19;;;-5.02;100.00
8051;BME280;4068;42.158;24.732;2024-01-15T03:04:33;99204.41;;;-4.92;100.00
8051;BME280;4068;42.158;24.732;2024-01-15T03:06:59;99206.41;;;-5.04;100.00
8051;BME280;4068;42.158;24.732;2024-01-15T03:09:24;99205.28;;;-4.93;100.00
8051;BME280;4068;42.158;24.732;2024-01-15T03:11:50;99210.53;;;-4.96;100.00
8051;BME280;4068;42.158;24.732;2024-01-15T03:14:15;99162.00;;;-5.23;100.00
8051;BME280;4068;42.158;24.732;2024-01-15T03:16:41;99174.97;;;-5.24;100.00
8051;BME280;4068;42.158;24.732;2024-01-15T03:19:07;99201.38;;;-5.10;100.00
8051;BME280;4068;42.158;24.732;2024-01-15T03:21:32;99177.88;;;-5.00;100.00
8051;BME280;4068;42.158;24.732;2024-01-15T03:23:58;99206.09;;;-4.90;100.00
8051;BME280;4068;42.158;24.732;2024-01-15T03:26:23;99203.66;;;-4.97;100.00
8051;BME280;4068;42.158;24.732;2024-01-15T03:28:48;99176.22;;;-5.05;100.00
8051;BME280;4068;42.158;24.732;2024-01-15T03:31:14;99202.22;;;-4.36;100.00
8051;BME280;4068;42.158;24.732;2024-01-15T03:33:39;99202.75;;;-4.23;100.00
8051;BME280;4068;42.158;24.732;2024-01-15T03:36:05;99192.44;;;-3.91;100.00
8051;BME280;4068;42.158;24.732;2024-01-15T03:38:31;99164.03;;;-4.27;100.00
8051;BME280;4068;42.158;24.732;2024-01-15T03:40:56;99196.00;;;-3.95;100.00
8051;BME280;4068;42.158;24.732;2024-01-15T03:43:22;99162.41;;;-3.99;100.00
8051;BME280;4068;42.158;24.732;2024-01-15T03:45:47;99203.03;;;-3.38;100.00
8051;BME280;4068;42.158;24.732;2024-01-15T03:48:13;99204.22;;;-3.18;100.00
8051;BME280;4068;42.158;24.732;2024-01-15T03:50:38;99209.25;;;-3.12;100.00
8051;BME280;4068;42.158;24.732;2024-01-15T03:53:04;99199.22;;;-3.24;100.00
8051;BME280;4068;42.158;24.732;2024-01-15T03:55:29;99224.72;;;-3.39;100.00
8051;BME280;4068;42.158;24.732;2024-01-15T03:57:55;99216.38;;;-3.50;100.00
8051;BME280;4068;42.158;24.732;2024-01-15T04:00:20;99212.34;;;-3.60;100.00
8051;BME280;4068;42.158;24.732;2024-01-15T04:02:46;99214.56;;;-3.79;100.00
8051;BME280;4068;42.158;24.732;2024-01-15T04:05:11;99204.75;;;-4.00;100.00
8051;BME280;4068;42.158;24.732;2024-01-15T04:07:37;99211.13;;;-4.11;100.00
8051;BME280;4068;42.158;24.732;2024-01-15T04:10:02;99198.50;;;-4.25;100.00
8051;BME280;4068;42.158;24.732;2024-01-15T04:12:28;99197.84;;;-4.34;100.00
8051;BME280;4068;42.158;24.732;2024-01-15T04:14:53;99194.47;;;-4.36;100.00
8051;BME280;4068;42.158;24.732;2024-01-15T04:17:19;99163.34;;;-4.69;100.00
8051;BME280;4068;42.158;24.732;2024-01-15T04:19:46;99197.50;;;-4.54;100.00
8051;BME280;4068;42.158;24.732;2024-01-15T04:22:13;99198.53;;;-4.61;100.00
8051;BME280;4068;42.158;24.732;2024-01-15T04:24:39;99190.31;;;-4.79;100.00
8051;BME280;4068;42.158;24.732;2024-01-15T04:27:05;99181.28;;;-4.98;100.00
8051;BME280;4068;42.158;24.732;2024-01-15T04:29:30;99179.72;;;-5.06;100.00
8051;BME280;4068;42.158;24.732;2024-01-15T04:31:56;99172.00;;;-5.07;100.00
8051;BME280;4068;42.158;24.732;2024-01-15T04:34:21;99184.94;;;-5.07;100.00
8051;BME280;4068;42.158;24.732;2024-01-15T04:36:47;99180.94;;;-5.22;100.00
8051;BME280;4068;42.158;24.732;2024-01-15T04:39:12;99174.03;;;-5.20;100.00
8051;BME280;4068;42.158;24.732;2024-01-15T04:41:38;99179.88;;;-5.13;100.00
8051;BME280;4068;42.158;24.732;2024-01-15T04:44:03;99177.31;;;-5.13;100.00
8051;BME280;4068;42.158;24.732;2024-01-15T04:46:29;99170.56;;;-5.21;100.00
8051;BME280;4068;42.158;24.732;2024-01-15T04:48:54;99162.78;;;-5.19;100.00
8051;BME280;4068;42.158;24.732;2024-01-15T04:51:20;99174.97;;;-5.24;100.00
8051;BME280;4068;42.158;24.732;2024-01-15T04:53:45;99185.03;;;-5.12;100.00
8051;BME280;4068;42.158;24.732;2024-01-15T04:56:11;99176.13;;;-4.98;100.00
8051;BME280;4068;42.158;24.732;2024-01-15T04:58:36;99175.19;;;-4.96;100.00
8051;BME280;4068;42.158;24.732;2024-01-15T05:01:02;99165.88;;;-5.05;100.00
8051;BME280;4068;42.158;24.732;2024-01-15T05:03:28;99134.41;;;-5.22;100.00
8051;BME280;4068;42.158;24.732;2024-01-15T05:05:53;99171.09;;;-5.06;100.00
8051;BME280;4068;42.158;24.732;2024-01-15T05:08:19;99161.75;;;-5.12;100.00
8051;BME280;4068;42.158;24.732;2024-01-15T05:10:44;99154.94;;;-5.16;100.00
8051;BME280;4068;42.158;24.732;2024-01-15T05:13:10;99141.25;;;-5.20;100.00
8051;BME280;4068;42.158;24.732;2024-01-15T05:15:35;99133.41;;;-5.16;100.00
8051;BME280;4068;42.158;24.732;2024-01-15T05:18:01;99140.34;;;-5.17;100.00
8051;BME280;4068;42.158;24.732;2024-01-15T05:20:26;99147.94;;;-5.11;100.00
8051;BME280;4068;42.158;24.732;2024-01-15T05:22:52;99100.00;;;-5.24;100.00
8051;BME280;4068;42.158;24.732;2024-01-15T05:25:17;99112.41;;;-5.03;100.00
8051;BME280;4068;42.158;24.732;2024-01-15T05:27:43;99142.19;;;-4.86;100.00
8051;BME280;4068;42.158;24.732;2024-01-15T05:30:09;99131.88;;;-4.88;100.00
8051;BME280;4068;42.158;24.732;2024-01-15T05:32:34;99131.22;;;-4.96;100.00
8051;BME280;4068;42.158;24.732;2024-01-15T05:35:00;99124.47;;;-5.03;100.00
8051;BME280;4068;42.158;24.732;2024-01-15T05:37:25;99102.97;;;-5.05;100.00
8051;BME280;4068;42.158;24.732;2024-01-15T05:39:51;99127.53;;;-4.86;100.00
8051;BME280;4068;42.158;24.732;2024-01-15T05:42:16;99124.19;;;-4.91;100.00
8051;BME280;4068;42.158;24.732;2024-01-15T05:44:42;99128.25;;;-4.80;100.00
8051;BME280;4068;42.158;24.732;2024-01-15T05:47:07;99141.22;;;-4.82;100.00
8051;BME280;4068;42.158;24.732;2024-01-15T05:49:33;99136.97;;;-4.83;100.00
8051;BME280;4068;42.158;24.732;2024-01-15T05:51:58;99148.09;;;-4.81;100.00
8051;BME280;4068;42.158;24.732;2024-01-15T05:54:24;99159.22;;;-4.76;100.00
8051;BME280;4068;42.158;24.732;2024-01-15T05:56:49;99172.94;;;-4.74;100.00
8051;BME280;4068;42.158;24.732;2024-01-15T05:59:15;99158.47;;;-4.81;100.00
8051;BME280;4068;42.158;24.732;2024-01-15T06:01:40;99142.19;;;-4.86;100.00
8051;BME280;4068;42.158;24.732;2024-01-15T06:04:06;99148.19;;;-4.84;100.00
8051;BME280;4068;42.158;24.732;2024-01-15T06:06:32;99130.44;;;-4.99;100.00
8051;BME280;4068;42.158;24.732;2024-01-15T06:08:57;99139.19;;;-5.05;100.00
8051;BME280;4068;42.158;24.732;2024-01-15T06:11:29;99145.25;;;-5.06;100.00
8051;BME280;4068;42.158;24.732;2024-01-15T06:13:55;99128.72;;;-5.00;100.00
8051;BME280;4068;42.158;24.732;2024-01-15T06:16:20;99134.50;;;-4.89;100.00
8051;BME280;4068;42.158;24.732;2024-01-15T06:18:46;99126.75;;;-4.89;100.00
8051;BME280;4068;42.158;24.732;2024-01-15T06:21:12;99137.69;;;-4.78;100.00
8051;BME280;4068;42.158;24.732;2024-01-15T06:23:39;99139.31;;;-4.74;100.00
8051;BME280;4068;42.158;24.732;2024-01-15T06:26:05;99169.38;;;-4.68;100.00
8051;BME280;4068;42.158;24.732;2024-01-15T06:28:30;99167.84;;;-4.77;100.00
8051;BME280;4068;42.158;24.732;2024-01-15T06:30:57;99168.75;;;-4.79;100.00
8051;BME280;4068;42.158;24.732;2024-01-15T06:33:23;99158.72;;;-4.93;100.00
8051;BME280;4068;42.158;24.732;2024-01-15T06:35:48;99169.91;;;-4.91;100.00
8051;BME280;4068;42.158;24.732;2024-01-15T06:38:14;99155.06;;;-4.83;100.00
8051;BME280;4068;42.158;24.732;2024-01-15T06:40:40;99172.34;;;-4.85;100.00
8051;BME280;4068;42.158;24.732;2024-01-15T06:43:11;99173.56;;;-4.64;100.00
8051;BME280;4068;42.158;24.732;2024-01-15T06:45:36;99163.31;;;-4.67;100.00
8051;BME280;4068;42.158;24.732;2024-01-15T06:48:02;99165.09;;;-4.71;100.00
8051;BME280;4068;42.158;24.732;2024-01-15T06:50:27;99160.00;;;-4.74;100.00
8051;BME280;4068;42.158;24.732;2024-01-15T06:52:53;99153.19;;;-4.78;100.00
8051;BME280;4068;42.158;24.732;2024-01-15T06:55:18;99142.59;;;-4.67;100.00
8051;BME280;4068;42.158;24.732;2024-01-15T06:57:44;99150.91;;;-4.54;100.00
8051;BME280;4068;42.158;24.732;2024-01-15T07:00:10;99150.00;;;-4.52;100.00
8051;BME280;4068;42.158;24.732;2024-01-15T07:02:35;99151.75;;;-4.54;100.00
8051;BME280;4068;42.158;24.732;2024-01-15T07:05:01;99145.56;;;-4.48;100.00
8051;BME280;4068;42.158;24.732;2024-01-15T07:07:26;99134.91;;;-4.36;100.00
8051;BME280;4068;42.158;24.732;2024-01-15T07:09:55;99134.75;;;-4.29;100.00
8051;BME280;4068;42.158;24.732;2024-01-15T07:12:20;99148.03;;;-4.09;100.00
8051;BME280;4068;42.158;24.732;2024-01-15T07:14:46;99147.75;;;-4.00;100.00
8051;BME280;4068;42.158;24.732;2024-01-15T07:17:11;99147.66;;;-3.96;100.00
8051;BME280;4068;42.158;24.732;2024-01-15T07:19:37;99145.84;;;-3.93;100.00
8051;BME280;4068;42.158;24.732;2024-01-15T07:22:03;99148.34;;;-3.90;100.00
8051;BME280;4068;42.158;24.732;2024-01-15T07:24:28;99155.66;;;-3.73;100.00
8051;BME280;4068;42.158;24.732;2024-01-15T07:26:54;99155.56;;;-3.70;100.00
8051;BME280;4068;42.158;24.732;2024-01-15T07:29:19;99157.09;;;-3.62;100.00
8051;BME280;4068;42.158;24.732;2024-01-15T07:31:49;99124.41;;;-3.68;100.00
8051;BME280;4068;42.158;24.732;2024-01-15T07:34:15;99150.34;;;-3.38;100.00
8051;BME280;4068;42.158;24.732;2024-01-15T07:36:42;99154.13;;;-3.20;100.00
8051;BME280;4068;42.158;24.732;2024-01-15T07:39:07;99155.41;;;-3.05;100.00
8051;BME280;4068;42.158;24.732;2024-01-15T07:41:33;99149.63;;;-2.87;100.00
8051;BME280;4068;42.158;24.732;2024-01-15T07:43:58;99165.50;;;-2.43;100.00
8051;BME280;4068;42.158;24.732;2024-01-15T07:46:24;99124.66;;;-2.37;100.00
8051;BME280;4068;42.158;24.732;2024-01-15T07:48:50;99148.59;;;-2.04;100.00
8051;BME280;4068;42.158;24.732;2024-01-15T07:51:24;99165.47;;;-1.65;100.00
8051;BME280;4068;42.158;24.732;2024-01-15T07:53:50;99168.84;;;-1.63;100.00
8051;BME280;4068;42.158;24.732;2024-01-15T07:56:16;99173.47;;;-1.48;100.00
8051;BME280;4068;42.158;24.732;2024-01-15T07:58:42;99179.91;;;-1.34;100.00
8051;BME280;4068;42.158;24.732;2024-01-15T08:01:07;99189.56;;;-1.14;100.00
8051;BME280;4068;42.158;24.732;2024-01-15T08:03:33;99193.31;;;-1.22;100.00
8051;BME280;4068;42.158;24.732;2024-01-15T08:05:59;99203.19;;;-1.08;100.00
8051;BME280;4068;42.158;24.732;2024-01-15T08:08:25;99197.94;;;-0.62;100.00
8051;BME280;4068;42.158;24.732;2024-01-15T08:10:53;99221.06;;;-0.32;100.00
8051;BME280;4068;42.158;24.732;2024-01-15T08:13:19;99216.28;;;0.21;100.00
8051;BME280;4068;42.158;24.732;2024-01-15T08:15:46;99206.63;;;0.62;100.00
8051;BME280;4068;42.158;24.732;2024-01-15T08:18:11;99235.06;;;0.88;100.00
8051;BME280;4068;42.158;24.732;2024-01-15T08:20:37;99217.31;;;0.96;100.00
8051;BME280;4068;42.158;24.732;2024-01-15T08:23:02;99183.06;;;0.83;100.00
8051;BME280;4068;42.158;24.732;2024-01-15T08:25:28;99209.53;;;0.94;100.00
8051;BME280;4068;42.158;24.732;2024-01-15T08:27:54;99220.19;;;1.09;100.00
8051;BME280;4068;42.158;24.732;2024-01-15T08:30:19;99227.50;;;1.38;100.00
8051;BME280;4068;42.158;24.732;2024-01-15T08:32:46;99224.19;;;1.52;100.00
8051;BME280;4068;42.158;24.732;2024-01-15T08:35:11;99218.69;;;1.59;100.00
8051;BME280;4068;42.158;24.732;2024-01-15T08:37:38;99216.88;;;1.96;100.00
8051;BME280;4068;42.158;24.732;2024-01-15T08:40:04;99201.09;;;2.15;100.00
8051;BME280;4068;42.158;24.732;2024-01-15T08:42:30;99198.31;;;2.35;100.00
8051;BME280;4068;42.158;24.732;2024-01-15T08:44:55;99199.69;;;2.25;100.00
8051;BME280;4068;42.158;24.732;2024-01-15T08:47:20;99194.69;;;2.20;100.00
8051;BME280;4068;42.158;24.732;2024-01-15T08:49:46;99159.97;;;2.34;100.00
8051;BME280;4068;42.158;24.732;2024-01-15T08:52:12;99137.50;;;1.97;100.00
8051;BME280;4068;42.158;24.732;2024-01-15T08:54:37;99160.94;;;2.16;100.00
8051;BME280;4068;42.158;24.732;2024-01-15T08:57:03;99119.78;;;2.02;100.00
8051;BME280;4068;42.158;24.732;2024-01-15T08:59:28;99149.00;;;2.44;100.00
8051;BME280;4068;42.158;24.732;2024-01-15T09:01:54;99145.28;;;2.48;100.00
8051;BME280;4068;42.158;24.732;2024-01-15T09:04:23;99154.00;;;2.15;100.00
8051;BME280;4068;42.158;24.732;2024-01-15T09:06:48;99130.66;;;2.28;100.00
8051;BME280;4068;42.158;24.732;2024-01-15T09:09:14;99135.78;;;2.29;100.00
8051;BME280;4068;42.158;24.732;2024-01-15T09:11:42;99126.78;;;2.35;100.00
8051;BME280;4068;42.158;24.732;2024-01-15T09:14:08;99142.66;;;2.48;100.00
8051;BME280;4068;42.158;24.732;2024-01-15T09:16:34;99110.50;;;2.30;100.00
8051;BME280;4068;42.158;24.732;2024-01-15T09:19:00;99116.19;;;2.54;100.00
8051;BME280;4068;42.158;24.732;2024-01-15T09:21:26;99137.97;;;2.86;99.16
8051;BME280;4068;42.158;24.732;2024-01-15T09:23:51;99141.88;;;3.11;99.12
8051;BME280;4068;42.158;24.732;2024-01-15T09:26:17;99136.31;;;3.32;97.09
8051;BME280;4068;42.158;24.732;2024-01-15T09:28:42;99115.41;;;3.46;95.43
8051;BME280;4068;42.158;24.732;2024-01-15T09:31:08;99133.31;;;3.54;95.95
8051;BME280;4068;42.158;24.732;2024-01-15T09:33:34;99102.88;;;3.51;95.90
8051;BME280;4068;42.158;24.732;2024-01-15T09:36:03;99107.53;;;3.76;95.48
8051;BME280;4068;42.158;24.732;2024-01-15T09:38:29;99107.13;;;3.68;94.25
8051;BME280;4068;42.158;24.732;2024-01-15T09:40:55;99105.63;;;3.64;94.50
8051;BME280;4068;42.158;24.732;2024-01-15T09:43:21;99091.59;;;3.79;94.55
8051;BME280;4068;42.158;24.732;2024-01-15T09:45:47;99104.47;;;3.98;92.92
8051;BME280;4068;42.158;24.732;2024-01-15T09:48:13;99089.69;;;3.53;94.03
8051;BME280;4068;42.158;24.732;2024-01-15T09:50:39;99056.44;;;3.53;95.94
8051;BME280;4068;42.158;24.732;2024-01-15T09:53:05;99097.91;;;4.06;95.32
8051;BME280;4068;42.158;24.732;2024-01-15T09:55:32;99058.25;;;4.10;94.04
8051;BME280;4068;42.158;24.732;2024-01-15T09:57:59;99067.69;;;4.27;92.57
8051;BME280;4068;42.158;24.732;2024-01-15T10:00:26;99071.84;;;4.17;92.89
8051;BME280;4068;42.158;24.732;2024-01-15T10:02:52;99068.66;;;3.97;92.31
8051;BME280;4068;42.158;24.732;2024-01-15T10:05:18;99076.81;;;4.07;92.37
8051;BME280;4068;42.158;24.732;2024-01-15T10:07:45;99065.28;;;3.95;92.88
8051;BME280;4068;42.158;24.732;2024-01-15T10:10:11;99052.91;;;3.97;92.59
8051;BME280;4068;42.158;24.732;2024-01-15T10:12:37;99043.81;;;4.32;93.01
8051;BME280;4068;42.158;24.732;2024-01-15T10:15:04;99055.53;;;4.26;91.84
8051;BME280;4068;42.158;24.732;2024-01-15T10:17:30;99057.28;;;4.55;91.37
8051;BME280;4068;42.158;24.732;2024-01-15T10:19:57;99030.66;;;4.46;90.15
8051;BME280;4068;42.158;24.732;2024-01-15T10:22:22;99051.19;;;4.81;89.64
8051;BME280;4068;42.158;24.732;2024-01-15T10:24:48;99028.66;;;4.92;88.51
8051;BME280;4068;42.158;24.732;2024-01-15T10:27:15;99014.03;;;4.88;87.67
8051;BME280;4068;42.158;24.732;2024-01-15T10:29:41;99004.06;;;4.65;88.32
8051;BME280;4068;42.158;24.732;2024-01-15T10:32:07;99011.66;;;4.83;87.78
8051;BME280;4068;42.158;24.732;2024-01-15T10:34:37;98998.38;;;4.72;88.68
8051;BME280;4068;42.158;24.732;2024-01-15T10:37:04;98960.50;;;4.48;88.76
8051;BME280;4068;42.158;24.732;2024-01-15T10:39:29;98957.75;;;4.50;90.11
8051;BME280;4068;42.158;24.732;2024-01-15T10:41:55;98962.19;;;4.90;90.14
8051;BME280;4068;42.158;24.732;2024-01-15T10:44:21;98930.91;;;4.99;86.36
8051;BME280;4068;42.158;24.732;2024-01-15T10:46:47;98946.81;;;5.36;86.97
8051;BME280;4068;42.158;24.732;2024-01-15T10:49:13;98953.31;;;5.44;84.38
8051;BME280;4068;42.158;24.732;2024-01-15T10:51:38;98957.28;;;5.75;85.12
8051;BME280;4068;42.158;24.732;2024-01-15T10:54:05;98962.84;;;5.96;83.75
8051;BME280;4068;42.158;24.732;2024-01-15T10:56:32;98929.19;;;6.01;84.90
8051;BME280;4068;42.158;24.732;2024-01-15T10:59:00;98970.47;;;6.62;80.29
8051;BME280;4068;42.158;24.732;2024-01-15T11:01:26;98951.56;;;6.20;81.41
8051;BME280;4068;42.158;24.732;2024-01-15T11:03:54;98951.34;;;6.47;80.42
8051;BME280;4068;42.158;24.732;2024-01-15T11:06:23;98934.31;;;6.64;78.71
8051;BME280;4068;42.158;24.732;2024-01-15T11:08:50;98915.19;;;6.49;76.72
8051;BME280;4068;42.158;24.732;2024-01-15T11:11:17;98923.59;;;6.79;76.12
8051;BME280;4068;42.158;24.732;2024-01-15T11:13:45;98908.94;;;7.10;74.46
8051;BME280;4068;42.158;24.732;2024-01-15T11:16:13;98907.25;;;7.20;71.26
8051;BME280;4068;42.158;24.732;2024-01-15T11:18:43;98902.94;;;7.19;70.50
8051;BME280;4068;42.158;24.732;2024-01-15T11:26:46;98892.13;;;6.88;69.09
8051;BME280;4068;42.158;24.732;2024-01-15T11:31:56;98897.78;;;7.18;66.56
8051;BME280;4068;42.158;24.732;2024-01-15T11:34:57;98892.13;;;7.00;64.31
8051;BME280;4068;42.158;24.732;2024-01-15T11:37:25;98879.66;;;6.90;64.45
8051;BME280;4068;42.158;24.732;2024-01-15T11:39:55;98867.44;;;7.01;64.46
8051;BME280;4068;42.158;24.732;2024-01-15T11:42:21;98858.59;;;7.36;63.70
8051;BME280;4068;42.158;24.732;2024-01-15T11:44:48;98883.44;;;7.45;63.18
8051;BME280;4068;42.158;24.732;2024-01-15T11:47:14;98887.00;;;7.55;62.57
8051;BME280;4068;42.158;24.732;2024-01-15T11:49:58;98881.84;;;7.53;61.74
8051;BME280;4068;42.158;24.732;2024-01-15T11:52:37;98851.16;;;7.64;62.76
8051;BME280;4068;42.158;24.732;2024-01-15T11:57:52;98851.75;;;7.67;60.35
8051;BME280;4068;42.158;24.732;2024-01-15T12:00:20;98860.13;;;7.72;59.60
8051;BME280;4068;42.158;24.732;2024-01-15T12:02:48;98854.66;;;7.41;60.64
8051;BME280;4068;42.158;24.732;2024-01-15T12:05:15;98851.53;;;7.25;62.39
8051;BME280;4068;42.158;24.732;2024-01-15T12:07:43;98837.50;;;7.24;62.41
8051;BME280;4068;42.158;24.732;2024-01-15T12:10:10;98844.34;;;7.16;62.29
8051;BME280;4068;42.158;24.732;2024-01-15T12:12:58;98851.66;;;6.65;64.26
8051;BME280;4068;42.158;24.732;2024-01-15T12:15:26;98846.91;;;6.35;65.72
8051;BME280;4068;42.158;24.732;2024-01-15T12:17:54;98854.31;;;6.41;67.05
8051;BME280;4068;42.158;24.732;2024-01-15T12:20:20;98862.03;;;6.44;67.60
8051;BME280;4068;42.158;24.732;2024-01-15T12:22:46;98850.88;;;6.41;66.98
8051;BME280;4068;42.158;24.732;2024-01-15T12:25:11;98826.97;;;6.19;67.81
8051;BME280;4068;42.158;24.732;2024-01-15T12:27:37;98828.59;;;6.09;68.03
8051;BME280;4068;42.158;24.732;2024-01-15T12:30:03;98818.53;;;6.03;69.06
8051;BME280;4068;42.158;24.732;2024-01-15T12:32:29;98793.88;;;5.67;70.08
8051;BME280;4068;42.158;24.732;2024-01-15T12:34:54;98785.66;;;5.47;71.91
8051;BME280;4068;42.158;24.732;2024-01-15T12:37:20;98827.06;;;5.57;72.92
8051;BME280;4068;42.158;24.732;2024-01-15T12:39:47;98821.81;;;5.57;73.69
8051;BME280;4068;42.158;24.732;2024-01-15T12:42:16;98820.66;;;5.48;76.14
8051;BME280;4068;42.158;24.732;2024-01-15T12:44:42;98822.47;;;5.47;76.33
8051;BME280;4068;42.158;24.732;2024-01-15T12:47:08;98833.81;;;5.48;77.06
8051;BME280;4068;42.158;24.732;2024-01-15T12:49:38;98825.47;;;5.54;75.67
8051;BME280;4068;42.158;24.732;2024-01-15T12:52:08;98814.81;;;5.68;75.19
8051;BME280;4068;42.158;24.732;2024-01-15T12:54:34;98816.16;;;5.74;74.64
8051;BME280;4068;42.158;24.732;2024-01-15T12:56:59;98820.47;;;5.75;75.33
8051;BME280;4068;42.158;24.732;2024-01-15T12:59:25;98816.34;;;5.84;75.19
8051;BME280;4068;42.158;24.732;2024-01-15T13:01:51;98805.44;;;5.77;75.47
8051;BME280;4068;42.158;24.732;2024-01-15T13:04:23;98796.97;;;5.85;75.43
8051;BME280;4068;42.158;24.732;2024-01-15T13:06:52;98790.78;;;5.86;74.53
8051;BME280;4068;42.158;24.732;2024-01-15T13:09:18;98761.88;;;5.73;74.74
8051;BME280;4068;42.158;24.732;2024-01-15T13:11:47;98787.50;;;5.82;75.11
8051;BME280;4068;42.158;24.732;2024-01-15T13:14:13;98767.41;;;5.81;75.01